createdAt,value
2022-10-17T00:01:45.503Z,97521.50
2022-10-17T00:04:12.017Z,97516.91
2022-10-17T00:06:39.815Z,97517.75
2022-10-17T00:09:06.158Z,97529.50
2022-10-17T00:11:32.680Z,97524.06
2022-10-17T00:13:59.068Z,97528.78
2022-10-17T00:16:30.154Z,97538.19
2022-10-17T00:18:56.977Z,97538.38
2022-10-17T00:21:23.989Z,97539.22
2022-10-17T00:23:50.487Z,97545.19
2022-10-17T00:26:16.975Z,97540.56
2022-10-17T00:28:46.144Z,97542.06
2022-10-17T00:31:12.513Z,97548.00
2022-10-17T00:33:39.297Z,97552.13
2022-10-17T00:36:12.690Z,97548.53
2022-10-17T00:38:39.881Z,97547.75
2022-10-17T00:41:06.495Z,97553.00
2022-10-17T00:43:51.678Z,97549.72
2022-10-17T00:46:18.173Z,97560.09
2022-10-17T00:48:45.325Z,97564.72
2022-10-17T00:51:11.831Z,97562.41
2022-10-17T00:53:39.396Z,97565.22
2022-10-17T00:56:06.005Z,97562.25
2022-10-17T00:58:32.426Z,97563.75
2022-10-17T01:00:58.807Z,97558.16
2022-10-17T01:03:25.180Z,97565.44
2022-10-17T01:05:51.717Z,97565.09
2022-10-17T01:08:18.106Z,97569.69
2022-10-17T01:11:03.106Z,97569.22
2022-10-17T01:13:44.984Z,97569.53
2022-10-17T01:16:19.056Z,97575.97
2022-10-17T01:19:05.649Z,97573.66
2022-10-17T01:21:32.150Z,97567.38
2022-10-17T01:24:29.855Z,97573.50
2022-10-17T01:27:19.608Z,97577.59
2022-10-17T01:30:04.897Z,97565.13
2022-10-17T01:32:49.679Z,97564.44
2022-10-17T01:35:21.969Z,97570.22
2022-10-17T01:40:22.049Z,97573.66
2022-10-17T01:42:59.879Z,97576.47
2022-10-17T01:46:02.739Z,97573.53
2022-10-17T01:48:35.600Z,97573.69
2022-10-17T01:51:06.752Z,97573.00
2022-10-17T01:53:56.355Z,97570.06
2022-10-17T01:56:25.106Z,97567.75
2022-10-17T01:58:55.423Z,97550.97
2022-10-17T02:01:22.117Z,97556.25
2022-10-17T02:03:49.544Z,97553.28
2022-10-17T02:06:15.888Z,97546.03
2022-10-17T02:08:46.679Z,97545.88
2022-10-17T02:11:13.064Z,97543.06
2022-10-17T02:13:48.361Z,97550.59
2022-10-17T02:16:32.839Z,97554.38
2022-10-17T02:19:28.446Z,97555.38
2022-10-17T02:22:24.045Z,97554.88
2022-10-17T02:24:54.807Z,97550.75
2022-10-17T02:27:32.446Z,97550.91
2022-10-17T02:30:23.627Z,97546.31
2022-10-17T02:32:53.470Z,97550.94
2022-10-17T02:35:20.874Z,97552.84
2022-10-17T02:37:47.556Z,97551.06
2022-10-17T02:40:15.420Z,97554.34
2022-10-17T02:42:44.114Z,97550.38
2022-10-17T02:45:11.193Z,97548.94
2022-10-17T02:47:58.783Z,97550.91
2022-10-17T02:50:32.228Z,97553.50
2022-10-17T02:53:01.191Z,97559.09
2022-10-17T02:55:36.415Z,97554.78
2022-10-17T02:58:06.648Z,97551.34
2022-10-17T03:00:34.940Z,97547.41
2022-10-17T03:03:01.280Z,97550.88
2022-10-17T03:05:28.825Z,97550.88
2022-10-17T03:07:55.793Z,97547.56
2022-10-17T03:10:22.643Z,97551.34
2022-10-17T03:12:49.055Z,97548.38
2022-10-17T03:15:15.421Z,97550.16
2022-10-17T03:17:41.861Z,97554.78
2022-10-17T03:20:08.365Z,97559.72
2022-10-17T03:22:34.692Z,97561.81
2022-10-17T03:25:01.029Z,97557.06
2022-10-17T03:27:27.677Z,97562.66
2022-10-17T03:29:54.261Z,97554.59
2022-10-17T03:32:20.620Z,97568.25
2022-10-17T03:34:47.129Z,97566.28
2022-10-17T03:37:13.501Z,97577.13
2022-10-17T03:39:39.900Z,97579.06
2022-10-17T03:42:06.204Z,97575.50
2022-10-17T03:44:32.516Z,97587.66
2022-10-17T03:46:58.910Z,97589.94
2022-10-17T03:49:25.254Z,97586.31
2022-10-17T03:51:51.656Z,97591.53
2022-10-17T03:54:18.079Z,97593.06
2022-10-17T03:56:44.594Z,97591.59
2022-10-17T03:59:14.578Z,97592.22
2022-10-17T04:01:41.434Z,97585.63
2022-10-17T04:04:08.462Z,97590.75
2022-10-17T04:06:34.924Z,97594.78
2022-10-17T04:09:01.671Z,97603.06
2022-10-17T04:11:28.371Z,97597.09
2022-10-17T04:13:55.559Z,97605.19
2022-10-17T04:16:22.457Z,97598.78
2022-10-17T04:18:52.671Z,97607.38
2022-10-17T04:21:19.334Z,97612.28
2022-10-17T04:23:45.660Z,97616.91
2022-10-17T04:26:11.972Z,97612.78
2022-10-17T04:28:40.867Z,97615.91
2022-10-17T04:31:08.352Z,97615.50
2022-10-17T04:33:35.028Z,97614.72
2022-10-17T04:36:05.705Z,97615.16
2022-10-17T04:38:33.530Z,97617.44
2022-10-17T04:41:03.170Z,97618.66
2022-10-17T04:43:33.469Z,97608.19
2022-10-17T04:46:00.454Z,97610.50
2022-10-17T04:48:27.827Z,97604.97
2022-10-17T04:51:01.545Z,97605.38
2022-10-17T04:53:28.625Z,97613.97
2022-10-17T04:55:54.992Z,97617.63
2022-10-17T04:58:21.575Z,97615.69
2022-10-17T05:00:47.997Z,97620.34
2022-10-17T05:03:14.562Z,97614.47
2022-10-17T05:05:41.675Z,97615.69
2022-10-17T05:08:09.330Z,97618.38
2022-10-17T05:10:36.689Z,97620.78
2022-10-17T05:13:03.228Z,97613.06
2022-10-17T05:15:29.632Z,97616.34
2022-10-17T05:17:56.474Z,97622.09
2022-10-17T05:20:23.274Z,97623.44
2022-10-17T05:22:49.813Z,97617.63
2022-10-17T05:25:16.153Z,97617.69
2022-10-17T05:27:42.634Z,97621.28
2022-10-17T05:30:09.209Z,97626.22
2022-10-17T05:32:35.687Z,97625.91
2022-10-17T05:35:03.828Z,97629.63
2022-10-17T05:37:30.933Z,97628.50
2022-10-17T05:39:57.544Z,97628.34
2022-10-17T05:42:24.119Z,97629.00
2022-10-17T05:44:50.519Z,97636.44
2022-10-17T05:47:17.056Z,97637.84
2022-10-17T05:49:48.650Z,97641.47
2022-10-17T05:52:18.527Z,97646.22
2022-10-17T05:54:44.872Z,97649.84
2022-10-17T05:57:11.488Z,97644.88
2022-10-17T05:59:37.803Z,97645.25
2022-10-17T06:02:04.270Z,97656.81
2022-10-17T06:04:30.633Z,97655.75
2022-10-17T06:06:56.952Z,97658.28
2022-10-17T06:09:23.775Z,97663.84
2022-10-17T06:11:50.116Z,97668.25
2022-10-17T06:14:16.553Z,97673.22
2022-10-17T06:16:43.616Z,97674.16
2022-10-17T06:19:11.785Z,97672.56
2022-10-17T06:21:38.883Z,97680.94
2022-10-17T06:24:05.404Z,97679.34
2022-10-17T06:26:31.734Z,97682.69
2022-10-17T06:28:58.147Z,97676.59
2022-10-17T06:31:24.589Z,97676.28
2022-10-17T06:33:51.018Z,97679.22
2022-10-17T06:36:17.384Z,97684.28
2022-10-17T06:38:43.891Z,97680.66
2022-10-17T06:41:13.692Z,97688.66
2022-10-17T06:43:40.739Z,97682.66
2022-10-17T06:46:07.187Z,97685.50
2022-10-17T06:48:33.800Z,97685.47
2022-10-17T06:51:00.833Z,97694.56
2022-10-17T06:53:28.571Z,97686.91
2022-10-17T06:55:55.409Z,97695.53
2022-10-17T06:58:22.716Z,97694.38
2022-10-17T07:00:49.168Z,97701.13
2022-10-17T07:03:15.622Z,97704.41
2022-10-17T07:05:41.974Z,97710.28
2022-10-17T07:08:08.792Z,97703.19
2022-10-17T07:10:38.462Z,97713.75
2022-10-17T07:13:04.793Z,97703.63
2022-10-17T07:15:32.382Z,97709.28
2022-10-17T07:17:58.735Z,97713.09
2022-10-17T07:20:25.205Z,97710.22
2022-10-17T07:22:51.617Z,97719.47
2022-10-17T07:25:17.993Z,97713.28
2022-10-17T07:27:44.322Z,97708.97
2022-10-17T07:30:10.966Z,97705.50
2022-10-17T07:32:37.345Z,97703.50
2022-10-17T07:35:03.827Z,97706.19
2022-10-17T07:37:30.593Z,97712.47
2022-10-17T07:39:57.198Z,97701.59
2022-10-17T07:42:23.980Z,97709.22
2022-10-17T07:44:51.090Z,97706.41
2022-10-17T07:47:17.479Z,97712.34
2022-10-17T07:49:45.315Z,97713.38
2022-10-17T07:52:12.348Z,97717.28
2022-10-17T07:54:38.785Z,97722.00
2022-10-17T07:57:05.510Z,97718.72
2022-10-17T07:59:33.237Z,97725.25
2022-10-17T08:02:00.735Z,97716.84
2022-10-17T08:04:27.159Z,97716.44
2022-10-17T08:06:56.656Z,97718.28
2022-10-17T08:09:37.676Z,97725.63
2022-10-17T08:12:04.095Z,97716.94
2022-10-17T08:14:30.446Z,97717.16
2022-10-17T08:16:56.783Z,97709.59
2022-10-17T08:19:23.132Z,97703.00
2022-10-17T08:21:50.104Z,97710.22
2022-10-17T08:24:16.453Z,97702.31
2022-10-17T08:26:44.614Z,97710.06
2022-10-17T08:29:16.292Z,97704.25
2022-10-17T08:31:46.552Z,97710.38
2022-10-17T08:34:15.875Z,97712.84
2022-10-17T08:36:42.264Z,97714.66
2022-10-17T08:39:08.665Z,97716.34
2022-10-17T08:41:38.015Z,97712.25
2022-10-17T08:44:16.728Z,97707.41
2022-10-17T08:46:45.359Z,97710.88
2022-10-17T08:49:15.168Z,97706.50
2022-10-17T08:51:47.887Z,97695.13
2022-10-17T08:54:20.474Z,97702.69
2022-10-17T08:56:49.778Z,97708.25
2022-10-17T08:59:36.489Z,97705.50
2022-10-17T09:02:09.017Z,97699.38
2022-10-17T09:04:38.114Z,97702.06
2022-10-17T09:07:04.804Z,97700.78
2022-10-17T09:09:49.249Z,97701.59
2022-10-17T09:12:15.948Z,97704.88
2022-10-17T09:14:51.108Z,97702.78
2022-10-17T09:17:37.758Z,97700.56
2022-10-17T09:20:04.347Z,97694.09
2022-10-17T09:22:34.794Z,97685.69
2022-10-17T09:25:03.808Z,97684.50
2022-10-17T09:27:44.566Z,97688.94
2022-10-17T09:30:47.204Z,97691.06
2022-10-17T09:33:28.279Z,97686.31
2022-10-17T09:36:02.453Z,97693.66
2022-10-17T09:38:34.597Z,97686.50
2022-10-17T09:41:02.109Z,97685.41
2022-10-17T09:43:28.643Z,97686.25
2022-10-17T09:45:55.089Z,97685.59
2022-10-17T09:48:43.271Z,97680.25
2022-10-17T09:51:21.830Z,97675.19
2022-10-17T09:53:55.754Z,97692.00
2022-10-17T09:56:22.507Z,97680.81
2022-10-17T09:58:53.449Z,97674.88
2022-10-17T10:01:22.969Z,97675.53
2022-10-17T10:04:10.933Z,97684.28
2022-10-17T10:06:37.471Z,97679.44
2022-10-17T10:09:05.570Z,97674.88
2022-10-17T10:11:44.139Z,97678.44
2022-10-17T10:14:20.184Z,97687.06
2022-10-17T10:16:47.270Z,97685.75
2022-10-17T10:19:21.425Z,97679.56
2022-10-17T10:21:55.272Z,97692.03
2022-10-17T10:24:21.825Z,97699.94
2022-10-17T10:26:48.792Z,97683.72
2022-10-17T10:29:24.353Z,97686.16
2022-10-17T10:31:51.548Z,97682.66
2022-10-17T10:34:17.848Z,97679.09
2022-10-17T10:36:45.651Z,97680.78
2022-10-17T10:39:27.141Z,97676.72
2022-10-17T10:41:53.617Z,97683.19
2022-10-17T10:44:22.963Z,97678.22
2022-10-17T10:47:05.428Z,97672.38
2022-10-17T10:49:32.452Z,97670.81
2022-10-17T10:52:00.463Z,97671.59
2022-10-17T10:54:33.935Z,97667.00
2022-10-17T10:57:03.382Z,97673.47
2022-10-17T10:59:36.019Z,97675.66
2022-10-17T11:02:10.016Z,97668.50
2022-10-17T11:04:40.777Z,97674.09
2022-10-17T11:07:22.482Z,97675.88
2022-10-17T11:10:07.336Z,97668.78
2022-10-17T11:12:39.400Z,97666.59
2022-10-17T11:15:08.852Z,97667.53
2022-10-17T11:17:47.386Z,97659.81
2022-10-17T11:20:28.719Z,97669.13
2022-10-17T11:23:01.671Z,97660.38
2022-10-17T11:25:32.869Z,97668.44
2022-10-17T11:28:03.795Z,97660.09
2022-10-17T11:30:39.934Z,97659.81
2022-10-17T11:33:07.485Z,97655.31
2022-10-17T11:35:38.733Z,97657.25
2022-10-17T11:38:17.678Z,97650.41
2022-10-17T11:40:45.508Z,97656.47
2022-10-17T11:43:25.630Z,97651.94
2022-10-17T11:46:15.268Z,97651.44
2022-10-17T11:48:45.251Z,97649.66
2022-10-17T11:54:04.397Z,97647.94
2022-10-17T11:56:50.988Z,97637.13
2022-10-17T11:59:35.847Z,97636.00
2022-10-17T12:02:04.951Z,97637.94
2022-10-17T12:04:31.401Z,97629.63
2022-10-17T12:07:16.611Z,97632.84
2022-10-17T12:09:46.163Z,97619.72
2022-10-17T12:12:23.717Z,97626.47
2022-10-17T12:14:50.081Z,97622.13
2022-10-17T12:17:28.807Z,97623.09
2022-10-17T12:20:15.199Z,97624.94
2022-10-17T12:22:47.038Z,97612.69
2022-10-17T12:25:33.814Z,97609.22
2022-10-17T12:28:06.269Z,97609.31
2022-10-17T12:30:32.917Z,97608.63
2022-10-17T12:33:06.531Z,97616.19
2022-10-17T12:35:35.406Z,97612.19
2022-10-17T12:38:03.668Z,97612.84
2022-10-17T12:40:35.824Z,97610.34
2022-10-17T12:43:15.021Z,97608.47
2022-10-17T12:45:53.693Z,97605.19
2022-10-17T12:48:43.298Z,97605.09
2022-10-17T12:51:34.192Z,97605.59
2022-10-17T12:53:58.670Z,97612.00
2022-10-17T12:56:36.428Z,97612.47
2022-10-17T12:59:07.979Z,97622.25
2022-10-17T13:01:36.761Z,97616.22
2022-10-17T13:04:05.903Z,97622.13
2022-10-17T13:06:39.922Z,97616.78
2022-10-17T13:09:10.213Z,97614.41
2022-10-17T13:11:37.860Z,97615.16
2022-10-17T13:14:10.527Z,97617.53
2022-10-17T13:16:38.271Z,97614.75
2022-10-17T13:19:12.479Z,97616.56
2022-10-17T13:21:38.818Z,97615.59
2022-10-17T13:24:29.753Z,97618.97
2022-10-17T13:26:56.295Z,97614.69
2022-10-17T13:29:25.588Z,97617.94
2022-10-17T13:31:54.402Z,97620.22
2022-10-17T13:34:22.541Z,97625.13
2022-10-17T13:36:54.600Z,97625.63
2022-10-17T13:39:38.419Z,97617.94
2022-10-17T13:42:30.014Z,97620.28
2022-10-17T13:44:57.810Z,97621.81
2022-10-17T13:47:36.636Z,97614.41
2022-10-17T13:50:09.455Z,97619.34
2022-10-17T13:52:43.156Z,97615.72
2022-10-17T13:55:17.476Z,97622.59
2022-10-17T13:57:44.093Z,97604.56
2022-10-17T14:00:16.602Z,97604.13
2022-10-17T14:02:43.116Z,97616.69
2022-10-17T14:05:18.552Z,97610.63
2022-10-17T14:08:21.853Z,97618.66
2022-10-17T14:10:49.734Z,97617.50
2022-10-17T14:13:21.269Z,97612.47
2022-10-17T14:15:47.683Z,97619.03
2022-10-17T14:18:16.939Z,97621.72
2022-10-17T14:21:31.788Z,97626.00
2022-10-17T14:23:36.697Z,97623.75
2022-10-17T14:26:08.991Z,97622.97
2022-10-17T14:28:35.662Z,97627.41
2022-10-17T14:31:31.431Z,97616.69
2022-10-17T14:33:57.920Z,97623.69
2022-10-17T14:36:32.211Z,97617.16
2022-10-17T14:38:58.778Z,97621.34
2022-10-17T14:41:43.557Z,97628.56
2022-10-17T14:44:17.704Z,97629.38
2022-10-17T14:46:49.568Z,97641.38
2022-10-17T14:49:23.261Z,97639.03
2022-10-17T14:52:11.427Z,97636.41
2022-10-17T14:54:40.021Z,97640.16
2022-10-17T14:57:15.711Z,97638.38
2022-10-17T14:59:53.721Z,97648.50
2022-10-17T15:02:21.221Z,97649.78
2022-10-17T15:04:48.605Z,97653.78
2022-10-17T15:07:15.881Z,97661.00
2022-10-17T15:09:42.921Z,97663.78
2022-10-17T15:12:18.470Z,97666.06
2022-10-17T15:14:45.330Z,97667.69
2022-10-17T15:17:14.096Z,97672.50
2022-10-17T15:19:40.707Z,97673.06
2022-10-17T15:22:07.031Z,97675.25
2022-10-17T15:24:33.353Z,97685.22
2022-10-17T15:26:59.738Z,97687.88
2022-10-17T15:29:26.090Z,97693.44
2022-10-17T15:31:52.420Z,97696.91
2022-10-17T15:34:19.774Z,97699.44
2022-10-17T15:36:50.537Z,97698.00
2022-10-17T15:39:16.968Z,97698.94
2022-10-17T15:41:44.020Z,97692.16
2022-10-17T15:44:10.504Z,97699.50
2022-10-17T15:46:39.428Z,97700.16
2022-10-17T15:49:09.948Z,97703.28
2022-10-17T15:51:36.274Z,97703.72
2022-10-17T15:54:02.813Z,97705.47
2022-10-17T15:56:31.088Z,97711.31
2022-10-17T15:58:58.673Z,97705.69
2022-10-17T16:01:27.005Z,97712.53
2022-10-17T16:03:53.861Z,97708.47
2022-10-17T16:06:21.357Z,97711.97
2022-10-17T16:08:48.002Z,97717.72
2022-10-17T16:11:17.979Z,97722.31
2022-10-17T16:13:48.276Z,97719.69
2022-10-17T16:16:15.667Z,97716.25
2022-10-17T16:18:43.072Z,97720.75
2022-10-17T16:21:12.507Z,97729.38
2022-10-17T16:23:39.969Z,97735.50
2022-10-17T16:26:07.179Z,97732.84
2022-10-17T16:28:33.805Z,97737.13
2022-10-17T16:31:00.158Z,97734.66
2022-10-17T16:33:26.533Z,97737.91
2022-10-17T16:35:53.224Z,97736.91
2022-10-17T16:38:19.546Z,97734.41
2022-10-17T16:40:45.895Z,97735.44
2022-10-17T16:43:12.711Z,97739.47
2022-10-17T16:45:39.372Z,97739.28
2022-10-17T16:48:06.100Z,97739.88
2022-10-17T16:50:35.556Z,97739.22
2022-10-17T16:53:03.904Z,97739.22
2022-10-17T16:55:30.229Z,97735.31
2022-10-17T16:57:56.861Z,97738.38
2022-10-17T17:00:23.259Z,97736.81
2022-10-17T17:02:49.725Z,97740.31
2022-10-17T17:05:16.167Z,97738.25
2022-10-17T17:07:42.595Z,97738.25
2022-10-17T17:10:09.295Z,97744.38
2022-10-17T17:12:36.193Z,97745.81
2022-10-17T17:15:03.510Z,97754.34
2022-10-17T17:17:36.889Z,97748.13
2022-10-17T17:20:11.262Z,97750.75
2022-10-17T17:22:37.968Z,97754.41
2022-10-17T17:25:04.495Z,97750.75
2022-10-17T17:27:31.018Z,97748.44
2022-10-17T17:29:57.545Z,97755.00
2022-10-17T17:32:23.878Z,97758.25
2022-10-17T17:34:50.233Z,97756.75
2022-10-17T17:37:16.614Z,97755.47
2022-10-17T17:39:43.022Z,97754.22
2022-10-17T17:42:09.337Z,97764.28
2022-10-17T17:44:35.666Z,97760.59
2022-10-17T17:47:03.143Z,97763.22
2022-10-17T17:49:29.782Z,97769.03
2022-10-17T17:51:56.443Z,97767.78
2022-10-17T17:54:23.873Z,97770.50
2022-10-17T17:56:52.216Z,97773.72
2022-10-17T17:59:18.649Z,97765.81
2022-10-17T18:01:45.134Z,97773.47
2022-10-17T18:04:11.564Z,97776.69
2022-10-17T18:06:38.705Z,97784.06
2022-10-17T18:09:05.833Z,97784.69
2022-10-17T18:11:33.712Z,97783.16
2022-10-17T18:14:01.397Z,97786.69
2022-10-17T18:16:28.392Z,97782.59
2022-10-17T18:18:54.958Z,97791.91
2022-10-17T18:21:21.424Z,97785.56
2022-10-17T18:23:48.455Z,97788.91
2022-10-17T18:26:15.519Z,97787.94
2022-10-17T18:31:22.172Z,97800.72
2022-10-17T18:33:50.773Z,97776.16
2022-10-17T18:36:17.089Z,97778.06
2022-10-17T18:38:43.575Z,97793.94
2022-10-17T18:41:11.653Z,97796.94
2022-10-17T18:43:39.152Z,97800.00
2022-10-17T18:46:10.858Z,97804.28
2022-10-17T18:48:41.038Z,97805.03
2022-10-17T18:51:07.874Z,97805.25
2022-10-17T18:53:34.790Z,97808.97
2022-10-17T18:56:03.529Z,97819.31
2022-10-17T18:58:30.020Z,97820.66
2022-10-17T19:01:01.557Z,97820.66
2022-10-17T19:03:27.889Z,97812.72
2022-10-17T19:05:59.060Z,97808.09
2022-10-17T19:08:27.539Z,97807.16
2022-10-17T19:10:58.109Z,97808.22
2022-10-17T19:13:24.493Z,97799.94
2022-10-17T19:15:50.801Z,97809.25
2022-10-17T19:18:17.255Z,97819.44
2022-10-17T19:20:43.595Z,97821.41
2022-10-17T19:23:10.097Z,97822.97
2022-10-17T19:25:36.441Z,97822.59
2022-10-17T19:28:02.812Z,97827.81
2022-10-17T19:30:29.234Z,97828.84
2022-10-17T19:32:55.713Z,97828.09
2022-10-17T19:35:22.085Z,97828.06
2022-10-17T19:37:49.443Z,97825.03
2022-10-17T19:40:15.853Z,97821.56
2022-10-17T19:42:42.183Z,97817.22
2022-10-17T19:45:08.973Z,97815.34
2022-10-17T19:47:35.387Z,97816.44
2022-10-17T19:50:01.772Z,97826.19
2022-10-17T19:52:28.526Z,97824.75
2022-10-17T19:54:56.078Z,97814.72
2022-10-17T19:57:22.421Z,97815.59
2022-10-17T19:59:51.327Z,97811.53
2022-10-17T20:02:20.047Z,97813.22
2022-10-17T20:04:54.582Z,97810.50
2022-10-17T20:07:32.989Z,97811.50
2022-10-17T20:09:59.336Z,97822.03
2022-10-17T20:12:25.684Z,97820.56
2022-10-17T20:14:52.035Z,97824.28
2022-10-17T20:17:18.395Z,97828.53
2022-10-17T20:19:44.817Z,97831.31
2022-10-17T20:22:11.320Z,97833.22
2022-10-17T20:24:37.824Z,97842.66
2022-10-17T20:27:04.263Z,97839.53
2022-10-17T20:29:30.655Z,97848.63
2022-10-17T20:31:57.677Z,97859.94
2022-10-17T20:34:24.239Z,97858.06
2022-10-17T20:36:51.877Z,97852.47
2022-10-17T20:39:19.093Z,97853.94
2022-10-17T20:41:48.705Z,97859.63
2022-10-17T20:44:15.377Z,97860.16
2022-10-17T20:46:48.828Z,97865.06
2022-10-17T20:49:26.876Z,97860.78
2022-10-17T20:51:53.396Z,97863.09
2022-10-17T20:54:21.858Z,97858.16
2022-10-17T20:56:48.233Z,97851.41
2022-10-17T20:59:16.254Z,97859.78
2022-10-17T21:01:43.164Z,97861.66
2022-10-17T21:04:44.215Z,97855.69
2022-10-17T21:06:56.152Z,97863.75
2022-10-17T21:09:22.649Z,97861.28
2022-10-17T21:11:51.431Z,97863.28
2022-10-17T21:14:18.284Z,97871.53
2022-10-17T21:16:44.875Z,97861.16
2022-10-17T21:19:12.205Z,97872.22
2022-10-17T21:21:40.322Z,97872.88
2022-10-17T21:24:12.434Z,97871.06
2022-10-17T21:26:39.209Z,97864.97
2022-10-17T21:29:06.052Z,97871.41
2022-10-17T21:31:42.726Z,97865.13
2022-10-17T21:34:17.598Z,97866.97
2022-10-17T21:36:44.411Z,97869.28
2022-10-17T21:39:11.674Z,97870.63
2022-10-17T21:41:38.346Z,97874.53
2022-10-17T21:44:06.489Z,97874.84
2022-10-17T21:46:33.697Z,97883.75
2022-10-17T21:49:00.490Z,97880.69
2022-10-17T21:51:27.396Z,97872.56
2022-10-17T21:53:54.468Z,97877.03
2022-10-17T21:56:23.816Z,97881.16
2022-10-17T21:58:50.878Z,97877.50
2022-10-17T22:01:18.694Z,97875.19
2022-10-17T22:03:46.969Z,97863.50
2022-10-17T22:06:39.278Z,97870.09
2022-10-17T22:09:05.786Z,97882.44
2022-10-17T22:11:33.957Z,97876.22
2022-10-17T22:14:05.041Z,97875.19
2022-10-17T22:16:31.359Z,97870.75
2022-10-17T22:19:03.106Z,97878.44
2022-10-17T22:21:33.384Z,97878.13
2022-10-17T22:24:00.863Z,97877.16
2022-10-17T22:26:28.100Z,97882.75
2022-10-17T22:28:54.724Z,97875.84
2022-10-17T22:31:21.360Z,97875.34
2022-10-17T22:33:47.675Z,97871.06
2022-10-17T22:36:14.251Z,97853.75
2022-10-17T22:38:40.594Z,97861.94
2022-10-17T22:41:07.362Z,97852.72
2022-10-17T22:43:33.760Z,97857.38
2022-10-17T22:46:01.581Z,97854.25
2022-10-17T22:48:30.317Z,97853.75
2022-10-17T22:50:57.416Z,97850.94
2022-10-17T22:53:25.721Z,97857.06
2022-10-17T22:56:02.806Z,97854.06
2022-10-17T22:58:30.445Z,97856.78
2022-10-17T23:00:57.184Z,97859.63
2022-10-17T23:03:24.130Z,97861.13
2022-10-17T23:05:50.899Z,97859.66
2022-10-17T23:08:18.539Z,97846.81
2022-10-17T23:10:45.268Z,97840.34
2022-10-17T23:13:11.908Z,97845.72
2022-10-17T23:15:38.278Z,97846.44
2022-10-17T23:18:04.839Z,97851.38
2022-10-17T23:20:33.367Z,97838.22
2022-10-17T23:22:59.920Z,97837.53
2022-10-17T23:25:26.808Z,97831.75
2022-10-17T23:27:53.227Z,97843.09
2022-10-17T23:30:19.932Z,97832.63
2022-10-17T23:32:46.556Z,97840.38
2022-10-17T23:35:12.874Z,97832.88
2022-10-17T23:37:39.179Z,97836.38
2022-10-17T23:40:06.014Z,97834.47
2022-10-17T23:42:32.411Z,97834.47
2022-10-17T23:44:58.718Z,97832.78
2022-10-17T23:47:25.029Z,97827.78
2022-10-17T23:49:51.467Z,97823.34
2022-10-17T23:52:17.825Z,97827.25
2022-10-17T23:54:44.238Z,97827.81
2022-10-17T23:57:10.589Z,97830.44
2022-10-17T23:59:36.948Z,97825.97
